EDW27N LSZH-LPPD
Flight info
| Callsign | EDW27N |
|---|---|
| Flight time | 4h 11m |
| Altitude | 35000 |
| Route | VEBIT T50 ROTOS Z669 ULMES DCT VADAR DCT NINTU DCT MEBAK DCT REPSI DCT LERGA DCT MINSO DCT NARAK DCT AGN DCT LATEK N995 PPN N976 DGO N725 SUSOS/N0444F360 DCT STG DCT RIPEL/N0442F350 DCT ERPES/M076F360 DCT LENSI DCT BAVAS |
| Aircraft | A320/M-SDE2E3FGHIJ1RWXY/LB1 |
Departure
| Time | 2026-05-08 11:00 |
|---|---|
| Airport | Zürich Airport (LSZH) |
Arrival
| Time | 2026-05-08 15:12 |
|---|---|
| Airport | João Paulo II Airport (LPPD) |
| Time | Latitude | Longitude | Altitude | Speed | Heading |
|---|---|---|---|---|---|
| 2026-05-08 10:37 | 47.45426 | 8.55803 | 1407 ft | 0 kts | 186° |
| 2026-05-08 10:51 | 47.45428 | 8.55804 | 1406 ft | 2 kts | 186° |
| 2026-05-08 10:51 | 47.45453 | 8.55806 | 1409 ft | 4 kts | 176° |
| 2026-05-08 10:52 | 47.45480 | 8.55800 | 1408 ft | 4 kts | 160° |
| 2026-05-08 10:52 | 47.45502 | 8.55781 | 1408 ft | 4 kts | 123° |
| 2026-05-08 10:52 | 47.45507 | 8.55764 | 1411 ft | 0 kts | 96° |
| 2026-05-08 10:55 | 47.45506 | 8.55784 | 1413 ft | 6 kts | 96° |
| 2026-05-08 10:55 | 47.45498 | 8.55883 | 1407 ft | 12 kts | 96° |
| 2026-05-08 10:56 | 47.45489 | 8.56013 | 1409 ft | 13 kts | 95° |
| 2026-05-08 10:56 | 47.45480 | 8.56145 | 1407 ft | 13 kts | 96° |
| 2026-05-08 10:56 | 47.45503 | 8.56262 | 1413 ft | 11 kts | 48° |
| 2026-05-08 10:56 | 47.45547 | 8.56336 | 1413 ft | 8 kts | 51° |
| 2026-05-08 10:57 | 47.45578 | 8.56394 | 1415 ft | 6 kts | 51° |
| 2026-05-08 10:57 | 47.45596 | 8.56471 | 1414 ft | 10 kts | 92° |
| 2026-05-08 10:57 | 47.45579 | 8.56676 | 1418 ft | 10 kts | 95° |
| 2026-05-08 10:58 | 47.45573 | 8.56769 | 1421 ft | 8 kts | 95° |
| 2026-05-08 10:58 | 47.45568 | 8.56848 | 1420 ft | 8 kts | 95° |
| 2026-05-08 10:58 | 47.45563 | 8.56956 | 1420 ft | 12 kts | 86° |
| 2026-05-08 10:58 | 47.45622 | 8.57022 | 1425 ft | 11 kts | 5° |
| 2026-05-08 10:59 | 47.45666 | 8.56989 | 1424 ft | 7 kts | 278° |
| 2026-05-08 10:59 | 47.45672 | 8.56874 | 1422 ft | 24 kts | 275° |
| 2026-05-08 10:59 | 47.45719 | 8.56207 | 1419 ft | 104 kts | 276° |
| 2026-05-08 10:59 | 47.45819 | 8.54805 | 1397 ft | 167 kts | 276° |
| 2026-05-08 11:00 | 47.45934 | 8.53065 | 2005 ft | 169 kts | 277° |
| 2026-05-08 11:00 | 47.46056 | 8.51325 | 2901 ft | 171 kts | 278° |
| 2026-05-08 11:00 | 47.46180 | 8.49589 | 3672 ft | 169 kts | 277° |
| 2026-05-08 11:00 | 47.46173 | 8.47870 | 4243 ft | 168 kts | 254° |
| 2026-05-08 11:01 | 47.45577 | 8.46406 | 4670 ft | 173 kts | 221° |
| 2026-05-08 11:01 | 47.44506 | 8.45381 | 4891 ft | 195 kts | 215° |
| 2026-05-08 11:01 | 47.43439 | 8.43966 | 5099 ft | 218 kts | 232° |
| 2026-05-08 11:01 | 47.42523 | 8.42078 | 5475 ft | 236 kts | 235° |
| 2026-05-08 11:02 | 47.41532 | 8.39995 | 5872 ft | 258 kts | 235° |
| 2026-05-08 11:02 | 47.39770 | 8.36295 | 7145 ft | 270 kts | 234° |
| 2026-05-08 11:02 | 47.38732 | 8.33971 | 8066 ft | 273 kts | 242° |
| 2026-05-08 11:03 | 47.37845 | 8.31473 | 8930 ft | 276 kts | 242° |
| 2026-05-08 11:03 | 47.36950 | 8.28953 | 9700 ft | 278 kts | 241° |
| 2026-05-08 11:03 | 47.36048 | 8.26413 | 10313 ft | 285 kts | 241° |
| 2026-05-08 11:03 | 47.35089 | 8.23719 | 10454 ft | 308 kts | 241° |
| 2026-05-08 11:04 | 47.34061 | 8.20834 | 10681 ft | 325 kts | 241° |
| 2026-05-08 11:04 | 47.33001 | 8.17854 | 11250 ft | 331 kts | 242° |
| 2026-05-08 11:04 | 47.31927 | 8.14839 | 11880 ft | 334 kts | 242° |
| 2026-05-08 11:04 | 47.30843 | 8.11794 | 12523 ft | 337 kts | 242° |
| 2026-05-08 11:05 | 47.29750 | 8.08721 | 13149 ft | 340 kts | 242° |
| 2026-05-08 11:05 | 47.28648 | 8.05620 | 13808 ft | 343 kts | 242° |
| 2026-05-08 11:05 | 47.27537 | 8.02491 | 14376 ft | 346 kts | 242° |
| 2026-05-08 11:05 | 47.26493 | 7.99281 | 14929 ft | 349 kts | 247° |
| 2026-05-08 11:06 | 47.25569 | 7.95961 | 15490 ft | 352 kts | 247° |
| 2026-05-08 11:06 | 47.24635 | 7.92620 | 16087 ft | 354 kts | 247° |
| 2026-05-08 11:06 | 47.23691 | 7.89256 | 16632 ft | 357 kts | 247° |
| 2026-05-08 11:06 | 47.22738 | 7.85865 | 17176 ft | 360 kts | 247° |
| 2026-05-08 11:07 | 47.21779 | 7.82449 | 17716 ft | 363 kts | 247° |
| 2026-05-08 11:07 | 47.20814 | 7.79011 | 18251 ft | 365 kts | 247° |
| 2026-05-08 11:07 | 47.19837 | 7.75543 | 18725 ft | 368 kts | 247° |
| 2026-05-08 11:07 | 47.18693 | 7.72173 | 19245 ft | 370 kts | 238° |
| 2026-05-08 11:08 | 47.17167 | 7.69116 | 19769 ft | 372 kts | 232° |
| 2026-05-08 11:08 | 47.15553 | 7.66126 | 20298 ft | 374 kts | 232° |
| 2026-05-08 11:08 | 47.13929 | 7.63121 | 20819 ft | 376 kts | 232° |
| 2026-05-08 11:08 | 47.12301 | 7.60110 | 21279 ft | 378 kts | 232° |
| 2026-05-08 11:09 | 47.10658 | 7.57075 | 21748 ft | 381 kts | 232° |
| 2026-05-08 11:09 | 47.09007 | 7.54026 | 22226 ft | 383 kts | 232° |
| 2026-05-08 11:09 | 47.07346 | 7.50964 | 22697 ft | 384 kts | 232° |
| 2026-05-08 11:09 | 47.05677 | 7.47888 | 23149 ft | 386 kts | 232° |
| 2026-05-08 11:10 | 47.03998 | 7.44794 | 23580 ft | 388 kts | 232° |
| 2026-05-08 11:10 | 47.02315 | 7.41696 | 23955 ft | 390 kts | 232° |
| 2026-05-08 11:10 | 47.00621 | 7.38588 | 24335 ft | 391 kts | 232° |
| 2026-05-08 11:10 | 46.98915 | 7.35471 | 24684 ft | 393 kts | 232° |
| 2026-05-08 11:11 | 46.97201 | 7.32348 | 25030 ft | 394 kts | 232° |
| 2026-05-08 11:11 | 46.95480 | 7.29221 | 25358 ft | 396 kts | 232° |
| 2026-05-08 11:11 | 46.93750 | 7.26077 | 25668 ft | 397 kts | 232° |
| 2026-05-08 11:11 | 46.92016 | 7.22917 | 25996 ft | 398 kts | 232° |
| 2026-05-08 11:12 | 46.90283 | 7.19752 | 26334 ft | 400 kts | 232° |
| 2026-05-08 11:12 | 46.88540 | 7.16573 | 26662 ft | 401 kts | 232° |
| 2026-05-08 11:12 | 46.86815 | 7.13435 | 26974 ft | 402 kts | 232° |
| 2026-05-08 11:12 | 46.85058 | 7.10247 | 27293 ft | 403 kts | 231° |
| 2026-05-08 11:13 | 46.83295 | 7.07053 | 27600 ft | 405 kts | 231° |
| 2026-05-08 11:13 | 46.81526 | 7.03848 | 27898 ft | 406 kts | 231° |
| 2026-05-08 11:13 | 46.79754 | 7.00635 | 28196 ft | 407 kts | 231° |
| 2026-05-08 11:13 | 46.77974 | 6.97413 | 28483 ft | 408 kts | 231° |
| 2026-05-08 11:14 | 46.76190 | 6.94190 | 28755 ft | 409 kts | 231° |
| 2026-05-08 11:14 | 46.74397 | 6.90961 | 29080 ft | 409 kts | 231° |
| 2026-05-08 11:14 | 46.72601 | 6.87727 | 29281 ft | 412 kts | 231° |
| 2026-05-08 11:14 | 46.70791 | 6.84467 | 29501 ft | 414 kts | 231° |
| 2026-05-08 11:15 | 46.68976 | 6.81204 | 29733 ft | 415 kts | 231° |
| 2026-05-08 11:15 | 46.67153 | 6.77927 | 29965 ft | 417 kts | 231° |
| 2026-05-08 11:15 | 46.65401 | 6.74561 | 30174 ft | 418 kts | 237° |
| 2026-05-08 11:15 | 46.63892 | 6.70950 | 30391 ft | 418 kts | 239° |
| 2026-05-08 11:16 | 46.62392 | 6.67329 | 30646 ft | 417 kts | 239° |
| 2026-05-08 11:16 | 46.60889 | 6.63721 | 30887 ft | 417 kts | 239° |
| 2026-05-08 11:16 | 46.59379 | 6.60116 | 31124 ft | 417 kts | 239° |
| 2026-05-08 11:16 | 46.57868 | 6.56521 | 31366 ft | 417 kts | 239° |
| 2026-05-08 11:17 | 46.56354 | 6.52925 | 31600 ft | 417 kts | 239° |
| 2026-05-08 11:17 | 46.54843 | 6.49328 | 31830 ft | 417 kts | 239° |
| 2026-05-08 11:17 | 46.53331 | 6.45730 | 32062 ft | 417 kts | 239° |
| 2026-05-08 11:17 | 46.51815 | 6.42127 | 32218 ft | 419 kts | 239° |
| 2026-05-08 11:18 | 46.50291 | 6.38505 | 32389 ft | 421 kts | 239° |
| 2026-05-08 11:18 | 46.48763 | 6.34879 | 32602 ft | 421 kts | 239° |
| 2026-05-08 11:18 | 46.47237 | 6.31260 | 32830 ft | 421 kts | 240° |
| 2026-05-08 11:18 | 46.45707 | 6.27640 | 33059 ft | 421 kts | 239° |
| 2026-05-08 11:19 | 46.44178 | 6.24026 | 33295 ft | 420 kts | 240° |
| 2026-05-08 11:19 | 46.42648 | 6.20413 | 33519 ft | 420 kts | 240° |
| 2026-05-08 11:19 | 46.41120 | 6.16805 | 33744 ft | 420 kts | 240° |
| 2026-05-08 11:19 | 46.39589 | 6.13192 | 33958 ft | 420 kts | 240° |
| 2026-05-08 11:20 | 46.38060 | 6.09591 | 34143 ft | 420 kts | 240° |
| 2026-05-08 11:20 | 46.36525 | 6.05989 | 34297 ft | 420 kts | 240° |
| 2026-05-08 11:20 | 46.34991 | 6.02389 | 34470 ft | 420 kts | 240° |
| 2026-05-08 11:20 | 46.33458 | 5.98793 | 34596 ft | 420 kts | 240° |
| 2026-05-08 11:21 | 46.31920 | 5.95192 | 34732 ft | 421 kts | 240° |
| 2026-05-08 11:21 | 46.30377 | 5.91589 | 34890 ft | 421 kts | 240° |
| 2026-05-08 11:21 | 46.28837 | 5.87999 | 35018 ft | 421 kts | 240° |
| 2026-05-08 11:22 | 46.25759 | 5.80842 | 35043 ft | 418 kts | 240° |
| 2026-05-08 11:22 | 46.22684 | 5.73714 | 35041 ft | 418 kts | 240° |
| 2026-05-08 11:23 | 46.19613 | 5.66592 | 35033 ft | 418 kts | 240° |
| 2026-05-08 11:23 | 46.16533 | 5.59484 | 35026 ft | 418 kts | 240° |
| 2026-05-08 11:24 | 46.13416 | 5.52409 | 35022 ft | 418 kts | 239° |
| 2026-05-08 11:24 | 46.10120 | 5.45491 | 35026 ft | 419 kts | 238° |
| 2026-05-08 11:25 | 46.06752 | 5.38634 | 35027 ft | 419 kts | 238° |
| 2026-05-08 11:25 | 46.03415 | 5.31766 | 35015 ft | 419 kts | 238° |
| 2026-05-08 11:26 | 46.00100 | 5.24886 | 35022 ft | 418 kts | 238° |
| 2026-05-08 11:26 | 45.96785 | 5.18018 | 35025 ft | 418 kts | 238° |
| 2026-05-08 11:27 | 45.93460 | 5.11155 | 35018 ft | 418 kts | 239° |
| 2026-05-08 11:27 | 45.90133 | 5.04306 | 35030 ft | 418 kts | 239° |
| 2026-05-08 11:28 | 45.86798 | 4.97468 | 35032 ft | 418 kts | 238° |
| 2026-05-08 11:28 | 45.83461 | 4.90647 | 35024 ft | 417 kts | 239° |
| 2026-05-08 11:29 | 45.80126 | 4.83839 | 35028 ft | 417 kts | 239° |
| 2026-05-08 11:29 | 45.76792 | 4.77050 | 35030 ft | 416 kts | 239° |
| 2026-05-08 11:30 | 45.73453 | 4.70273 | 35022 ft | 416 kts | 239° |
| 2026-05-08 11:30 | 45.70114 | 4.63504 | 35024 ft | 416 kts | 239° |
| 2026-05-08 11:31 | 45.66780 | 4.56742 | 35011 ft | 416 kts | 239° |
| 2026-05-08 11:31 | 45.63448 | 4.50000 | 35023 ft | 415 kts | 239° |
| 2026-05-08 11:32 | 45.60109 | 4.43280 | 35028 ft | 415 kts | 239° |
| 2026-05-08 11:32 | 45.56763 | 4.36570 | 35031 ft | 414 kts | 239° |
| 2026-05-08 11:33 | 45.53420 | 4.29873 | 35027 ft | 414 kts | 239° |
| 2026-05-08 11:33 | 45.50078 | 4.23183 | 35018 ft | 414 kts | 239° |
| 2026-05-08 11:34 | 45.46734 | 4.16513 | 35012 ft | 413 kts | 239° |
| 2026-05-08 11:34 | 45.43383 | 4.09859 | 35015 ft | 413 kts | 239° |
| 2026-05-08 11:35 | 45.40038 | 4.03219 | 35015 ft | 413 kts | 239° |
| 2026-05-08 11:35 | 45.36688 | 3.96592 | 35002 ft | 413 kts | 239° |
| 2026-05-08 11:36 | 45.33355 | 3.90013 | 35011 ft | 413 kts | 239° |
| 2026-05-08 11:36 | 45.30000 | 3.83405 | 34998 ft | 412 kts | 239° |
| 2026-05-08 11:37 | 45.26648 | 3.76829 | 35030 ft | 410 kts | 239° |
| 2026-05-08 11:37 | 45.23336 | 3.70253 | 35013 ft | 409 kts | 239° |
| 2026-05-08 11:38 | 45.20092 | 3.63635 | 35012 ft | 408 kts | 240° |
| 2026-05-08 11:38 | 45.16857 | 3.57023 | 35006 ft | 408 kts | 239° |
| 2026-05-08 11:39 | 45.13604 | 3.50437 | 34976 ft | 408 kts | 239° |
| 2026-05-08 11:39 | 45.10345 | 3.43870 | 34998 ft | 407 kts | 239° |
| 2026-05-08 11:40 | 45.07090 | 3.37318 | 35000 ft | 407 kts | 239° |
| 2026-05-08 11:40 | 45.03833 | 3.30780 | 35008 ft | 406 kts | 239° |
| 2026-05-08 11:41 | 45.00579 | 3.24256 | 35007 ft | 406 kts | 239° |
| 2026-05-08 11:41 | 44.97320 | 3.17746 | 35016 ft | 406 kts | 239° |
| 2026-05-08 11:42 | 44.94066 | 3.11240 | 34999 ft | 405 kts | 239° |
| 2026-05-08 11:42 | 44.90807 | 3.04752 | 35006 ft | 405 kts | 238° |
| 2026-05-08 11:43 | 44.87546 | 2.98285 | 35014 ft | 404 kts | 238° |
| 2026-05-08 11:43 | 44.84293 | 2.91819 | 35017 ft | 404 kts | 239° |
| 2026-05-08 11:44 | 44.81201 | 2.85225 | 35022 ft | 403 kts | 240° |
| 2026-05-08 11:44 | 44.78204 | 2.78569 | 35020 ft | 403 kts | 240° |
| 2026-05-08 11:45 | 44.75179 | 2.71936 | 35019 ft | 403 kts | 240° |
| 2026-05-08 11:45 | 44.72119 | 2.65339 | 35017 ft | 403 kts | 239° |
| 2026-05-08 11:46 | 44.69058 | 2.58756 | 35018 ft | 402 kts | 239° |
| 2026-05-08 11:46 | 44.66517 | 2.53289 | 35020 ft | 402 kts | 239° |
| 2026-05-08 11:47 | 44.63461 | 2.46715 | 35019 ft | 402 kts | 239° |
| 2026-05-08 11:47 | 44.60398 | 2.40159 | 35018 ft | 402 kts | 239° |
| 2026-05-08 11:48 | 44.57330 | 2.33613 | 35003 ft | 401 kts | 239° |
| 2026-05-08 11:48 | 44.54266 | 2.27079 | 35011 ft | 401 kts | 238° |
| 2026-05-08 11:49 | 44.51200 | 2.20558 | 35009 ft | 401 kts | 238° |
| 2026-05-08 11:49 | 44.48122 | 2.14039 | 35012 ft | 401 kts | 238° |
| 2026-05-08 11:50 | 44.45042 | 2.07530 | 35012 ft | 401 kts | 238° |
| 2026-05-08 11:50 | 44.41963 | 2.01016 | 35011 ft | 401 kts | 238° |
| 2026-05-08 11:51 | 44.38887 | 1.94509 | 34992 ft | 401 kts | 238° |
| 2026-05-08 11:51 | 44.35797 | 1.88020 | 34995 ft | 401 kts | 237° |
| 2026-05-08 11:52 | 44.32698 | 1.81547 | 34995 ft | 401 kts | 237° |
| 2026-05-08 11:52 | 44.29602 | 1.75063 | 34996 ft | 401 kts | 237° |
| 2026-05-08 11:53 | 44.26563 | 1.68536 | 34995 ft | 401 kts | 238° |
| 2026-05-08 11:53 | 44.23576 | 1.61956 | 34987 ft | 401 kts | 238° |
| 2026-05-08 11:54 | 44.20577 | 1.55395 | 34977 ft | 401 kts | 238° |
| 2026-05-08 11:54 | 44.17556 | 1.48848 | 34976 ft | 402 kts | 237° |
| 2026-05-08 11:55 | 44.14522 | 1.42296 | 34975 ft | 403 kts | 237° |
| 2026-05-08 11:55 | 44.11480 | 1.35745 | 34964 ft | 403 kts | 237° |
| 2026-05-08 11:56 | 44.08431 | 1.29185 | 34972 ft | 404 kts | 237° |
| 2026-05-08 11:56 | 44.05381 | 1.22633 | 34974 ft | 404 kts | 237° |
| 2026-05-08 11:57 | 44.02325 | 1.16080 | 34964 ft | 404 kts | 237° |
| 2026-05-08 11:57 | 43.99260 | 1.09533 | 34956 ft | 405 kts | 236° |
| 2026-05-08 11:58 | 43.96188 | 1.02967 | 34944 ft | 406 kts | 236° |
| 2026-05-08 11:58 | 43.93102 | 0.96400 | 34948 ft | 406 kts | 236° |
| 2026-05-08 11:59 | 43.88371 | 0.86641 | 34945 ft | 407 kts | 230° |
| 2026-05-08 11:59 | 43.84611 | 0.80786 | 34947 ft | 407 kts | 228° |
| 2026-05-08 12:00 | 43.80831 | 0.74953 | 34955 ft | 407 kts | 227° |
| 2026-05-08 12:00 | 43.77056 | 0.69123 | 34955 ft | 407 kts | 227° |
| 2026-05-08 12:01 | 43.73279 | 0.63295 | 34957 ft | 407 kts | 227° |
| 2026-05-08 12:01 | 43.69494 | 0.57484 | 34950 ft | 407 kts | 227° |
| 2026-05-08 12:02 | 43.65701 | 0.51680 | 34949 ft | 407 kts | 227° |
| 2026-05-08 12:02 | 43.61912 | 0.45882 | 34945 ft | 407 kts | 227° |
| 2026-05-08 12:03 | 43.58122 | 0.40086 | 34944 ft | 407 kts | 227° |
| 2026-05-08 12:03 | 43.54326 | 0.34300 | 34949 ft | 407 kts | 226° |
| 2026-05-08 12:04 | 43.50518 | 0.28513 | 34936 ft | 408 kts | 226° |
| 2026-05-08 12:04 | 43.46704 | 0.22719 | 34933 ft | 409 kts | 226° |
| 2026-05-08 12:05 | 43.42882 | 0.16920 | 34937 ft | 409 kts | 226° |
| 2026-05-08 12:05 | 43.39057 | 0.11125 | 34934 ft | 409 kts | 226° |
| 2026-05-08 12:06 | 43.35216 | 0.05337 | 34935 ft | 410 kts | 226° |
| 2026-05-08 12:06 | 43.31369 | -0.00445 | 34956 ft | 410 kts | 226° |
| 2026-05-08 12:07 | 43.27519 | -0.06230 | 34954 ft | 411 kts | 225° |
| 2026-05-08 12:07 | 43.23656 | -0.12021 | 34948 ft | 412 kts | 225° |
| 2026-05-08 12:08 | 43.19787 | -0.17819 | 34944 ft | 412 kts | 225° |
| 2026-05-08 12:08 | 43.15917 | -0.23613 | 34948 ft | 412 kts | 225° |
| 2026-05-08 12:09 | 43.12034 | -0.29395 | 34951 ft | 412 kts | 225° |
| 2026-05-08 12:09 | 43.08145 | -0.35165 | 34961 ft | 413 kts | 225° |
| 2026-05-08 12:10 | 43.04260 | -0.40939 | 34964 ft | 413 kts | 225° |
| 2026-05-08 12:10 | 43.00372 | -0.46708 | 34977 ft | 412 kts | 224° |
| 2026-05-08 12:11 | 42.96477 | -0.52469 | 34972 ft | 413 kts | 224° |
| 2026-05-08 12:11 | 42.92578 | -0.58222 | 34974 ft | 413 kts | 224° |
| 2026-05-08 12:12 | 42.88889 | -0.64240 | 34968 ft | 417 kts | 236° |
| 2026-05-08 12:12 | 42.86724 | -0.71624 | 34967 ft | 426 kts | 255° |
| 2026-05-08 12:13 | 42.85680 | -0.79592 | 34984 ft | 428 kts | 256° |
| 2026-05-08 12:13 | 42.84633 | -0.87581 | 34966 ft | 429 kts | 256° |
| 2026-05-08 12:14 | 42.83571 | -0.95593 | 34958 ft | 430 kts | 256° |
| 2026-05-08 12:14 | 42.82497 | -1.03614 | 34952 ft | 431 kts | 256° |
| 2026-05-08 12:15 | 42.81418 | -1.11642 | 34949 ft | 431 kts | 256° |
| 2026-05-08 12:15 | 42.80328 | -1.19682 | 34960 ft | 432 kts | 255° |
| 2026-05-08 12:16 | 42.79235 | -1.27747 | 34948 ft | 434 kts | 255° |
| 2026-05-08 12:16 | 42.78138 | -1.35825 | 34950 ft | 434 kts | 255° |
| 2026-05-08 12:17 | 42.77025 | -1.43909 | 34953 ft | 435 kts | 255° |
| 2026-05-08 12:17 | 42.75906 | -1.51996 | 34957 ft | 435 kts | 255° |
| 2026-05-08 12:18 | 42.74787 | -1.60107 | 34973 ft | 437 kts | 255° |
| 2026-05-08 12:18 | 42.73652 | -1.68232 | 34962 ft | 438 kts | 255° |
| 2026-05-08 12:19 | 42.72039 | -1.76156 | 34961 ft | 434 kts | 249° |
| 2026-05-08 12:19 | 42.70267 | -1.84018 | 34955 ft | 435 kts | 249° |
| 2026-05-08 12:20 | 42.68492 | -1.91872 | 34965 ft | 435 kts | 248° |
| 2026-05-08 12:20 | 42.66715 | -1.99732 | 34951 ft | 435 kts | 248° |
| 2026-05-08 12:21 | 42.64933 | -2.07585 | 34945 ft | 435 kts | 248° |
| 2026-05-08 12:21 | 42.63134 | -2.15434 | 34939 ft | 435 kts | 248° |
| 2026-05-08 12:22 | 42.61282 | -2.23252 | 34939 ft | 435 kts | 247° |
| 2026-05-08 12:22 | 42.59373 | -2.31047 | 34963 ft | 435 kts | 247° |
| 2026-05-08 12:23 | 42.57462 | -2.38833 | 34967 ft | 435 kts | 247° |
| 2026-05-08 12:23 | 42.55559 | -2.46609 | 34964 ft | 434 kts | 247° |
| 2026-05-08 12:24 | 42.53658 | -2.54371 | 34960 ft | 433 kts | 247° |
| 2026-05-08 12:24 | 42.51755 | -2.62115 | 34953 ft | 433 kts | 247° |
| 2026-05-08 12:25 | 42.49849 | -2.69848 | 34972 ft | 432 kts | 247° |
| 2026-05-08 12:25 | 42.47940 | -2.77562 | 34945 ft | 431 kts | 247° |
| 2026-05-08 12:26 | 42.46152 | -2.85318 | 34936 ft | 434 kts | 255° |
| 2026-05-08 12:26 | 42.45820 | -2.92145 | 34936 ft | 443 kts | 271° |
| 2026-05-08 12:27 | 42.46705 | -3.00431 | 34930 ft | 445 kts | 274° |
| 2026-05-08 12:27 | 42.47617 | -3.08719 | 34952 ft | 445 kts | 274° |
| 2026-05-08 12:28 | 42.48649 | -3.18351 | 34945 ft | 444 kts | 274° |
| 2026-05-08 12:28 | 42.49385 | -3.25295 | 34945 ft | 444 kts | 274° |
| 2026-05-08 12:29 | 42.50271 | -3.33576 | 34947 ft | 444 kts | 274° |
| 2026-05-08 12:29 | 42.51155 | -3.41857 | 34950 ft | 444 kts | 274° |
| 2026-05-08 12:30 | 42.52015 | -3.50091 | 34967 ft | 444 kts | 274° |
| 2026-05-08 12:30 | 42.52884 | -3.58435 | 34961 ft | 444 kts | 274° |
| 2026-05-08 12:31 | 42.53740 | -3.66664 | 34960 ft | 444 kts | 274° |
| 2026-05-08 12:31 | 42.54593 | -3.74949 | 34955 ft | 444 kts | 274° |
| 2026-05-08 12:32 | 42.55441 | -3.83240 | 34963 ft | 444 kts | 273° |
| 2026-05-08 12:32 | 42.56283 | -3.91548 | 34937 ft | 445 kts | 273° |
| 2026-05-08 12:33 | 42.57118 | -3.99883 | 34934 ft | 446 kts | 273° |
| 2026-05-08 12:33 | 42.57955 | -4.08235 | 34934 ft | 447 kts | 273° |
| 2026-05-08 12:34 | 42.58791 | -4.16597 | 34935 ft | 447 kts | 273° |
| 2026-05-08 12:34 | 42.59619 | -4.24971 | 34936 ft | 448 kts | 273° |
| 2026-05-08 12:35 | 42.60442 | -4.33350 | 34941 ft | 448 kts | 273° |
| 2026-05-08 12:35 | 42.61253 | -4.41732 | 34941 ft | 448 kts | 273° |
| 2026-05-08 12:36 | 42.62050 | -4.50112 | 34952 ft | 448 kts | 273° |
| 2026-05-08 12:36 | 42.62850 | -4.58502 | 34984 ft | 448 kts | 273° |
| 2026-05-08 12:37 | 42.63647 | -4.66893 | 34972 ft | 448 kts | 272° |
| 2026-05-08 12:37 | 42.64434 | -4.75295 | 34971 ft | 448 kts | 272° |
| 2026-05-08 12:38 | 42.65220 | -4.83696 | 34966 ft | 449 kts | 272° |
| 2026-05-08 12:38 | 42.65994 | -4.92104 | 34963 ft | 449 kts | 272° |
| 2026-05-08 12:39 | 42.66761 | -5.00515 | 34980 ft | 449 kts | 272° |
| 2026-05-08 12:39 | 42.67527 | -5.08936 | 34979 ft | 449 kts | 272° |
| 2026-05-08 12:40 | 42.68284 | -5.17352 | 34979 ft | 449 kts | 272° |
| 2026-05-08 12:40 | 42.69042 | -5.25782 | 34970 ft | 449 kts | 272° |
| 2026-05-08 12:41 | 42.69773 | -5.34143 | 34984 ft | 448 kts | 272° |
| 2026-05-08 12:41 | 42.70494 | -5.42566 | 34975 ft | 449 kts | 272° |
| 2026-05-08 12:42 | 42.71228 | -5.50997 | 34963 ft | 449 kts | 272° |
| 2026-05-08 12:42 | 42.71956 | -5.59431 | 34961 ft | 449 kts | 272° |
| 2026-05-08 12:43 | 42.72674 | -5.67861 | 34937 ft | 449 kts | 272° |
| 2026-05-08 12:43 | 42.73389 | -5.76300 | 34955 ft | 449 kts | 272° |
| 2026-05-08 12:44 | 42.74098 | -5.84731 | 34953 ft | 449 kts | 272° |
| 2026-05-08 12:44 | 42.74801 | -5.93162 | 34952 ft | 448 kts | 272° |
| 2026-05-08 12:45 | 42.75495 | -6.01587 | 34947 ft | 448 kts | 272° |
| 2026-05-08 12:45 | 42.76181 | -6.10012 | 34956 ft | 448 kts | 272° |
| 2026-05-08 12:46 | 42.76863 | -6.18433 | 34950 ft | 447 kts | 272° |
| 2026-05-08 12:46 | 42.77536 | -6.26842 | 34932 ft | 447 kts | 272° |
| 2026-05-08 12:47 | 42.78209 | -6.35244 | 34928 ft | 446 kts | 272° |
| 2026-05-08 12:47 | 42.78869 | -6.43636 | 34918 ft | 445 kts | 271° |
| 2026-05-08 12:48 | 42.79519 | -6.52024 | 34927 ft | 445 kts | 272° |
| 2026-05-08 12:48 | 42.80162 | -6.60405 | 34920 ft | 444 kts | 272° |
| 2026-05-08 12:49 | 42.80801 | -6.68769 | 34916 ft | 444 kts | 272° |
| 2026-05-08 12:49 | 42.81435 | -6.77136 | 34907 ft | 444 kts | 272° |
| 2026-05-08 12:50 | 42.82066 | -6.85494 | 34914 ft | 444 kts | 271° |
| 2026-05-08 12:50 | 42.82691 | -6.93871 | 34897 ft | 444 kts | 271° |
| 2026-05-08 12:51 | 42.83614 | -7.06454 | 34883 ft | 446 kts | 271° |
| 2026-05-08 12:52 | 42.84224 | -7.14854 | 34887 ft | 446 kts | 271° |
| 2026-05-08 12:52 | 42.85122 | -7.27460 | 34895 ft | 446 kts | 271° |
| 2026-05-08 12:53 | 42.85708 | -7.35817 | 34892 ft | 446 kts | 271° |
| 2026-05-08 12:53 | 42.86294 | -7.44283 | 34890 ft | 446 kts | 271° |
| 2026-05-08 12:54 | 42.86873 | -7.52697 | 34890 ft | 446 kts | 271° |
| 2026-05-08 12:54 | 42.87452 | -7.61058 | 34911 ft | 446 kts | 271° |
| 2026-05-08 12:55 | 42.88022 | -7.69465 | 34909 ft | 445 kts | 271° |
| 2026-05-08 12:55 | 42.88578 | -7.77853 | 34905 ft | 444 kts | 271° |
| 2026-05-08 12:56 | 42.89132 | -7.86234 | 34901 ft | 443 kts | 271° |
| 2026-05-08 12:56 | 42.89675 | -7.94601 | 34898 ft | 443 kts | 271° |
| 2026-05-08 12:57 | 42.90216 | -8.02967 | 34898 ft | 443 kts | 271° |
| 2026-05-08 12:57 | 42.90753 | -8.11327 | 34898 ft | 442 kts | 271° |
| 2026-05-08 12:58 | 42.91282 | -8.19685 | 34898 ft | 442 kts | 271° |
| 2026-05-08 12:58 | 42.91800 | -8.28045 | 34899 ft | 442 kts | 271° |
| 2026-05-08 12:59 | 42.92307 | -8.36399 | 34911 ft | 442 kts | 271° |
| 2026-05-08 12:59 | 42.91998 | -8.44653 | 34882 ft | 433 kts | 253° |
| 2026-05-08 13:00 | 42.90146 | -8.52391 | 34886 ft | 428 kts | 247° |
| 2026-05-08 13:00 | 42.88173 | -8.60046 | 34895 ft | 428 kts | 248° |
| 2026-05-08 13:01 | 42.86205 | -8.67696 | 34894 ft | 427 kts | 248° |
| 2026-05-08 13:01 | 42.84229 | -8.75327 | 34917 ft | 427 kts | 248° |
| 2026-05-08 13:02 | 42.82249 | -8.82945 | 34914 ft | 426 kts | 248° |
| 2026-05-08 13:02 | 42.80271 | -8.90539 | 34909 ft | 425 kts | 248° |
| 2026-05-08 13:03 | 42.78290 | -8.98113 | 34905 ft | 424 kts | 248° |
| 2026-05-08 13:03 | 42.76307 | -9.05666 | 34900 ft | 424 kts | 248° |
| 2026-05-08 13:04 | 42.74315 | -9.13209 | 34916 ft | 423 kts | 248° |
| 2026-05-08 13:04 | 42.72329 | -9.20737 | 34911 ft | 423 kts | 248° |
| 2026-05-08 13:05 | 42.70346 | -9.28202 | 34909 ft | 422 kts | 247° |
| 2026-05-08 13:05 | 42.68342 | -9.35698 | 34905 ft | 422 kts | 247° |
| 2026-05-08 13:06 | 42.66346 | -9.43192 | 34904 ft | 422 kts | 247° |
| 2026-05-08 13:06 | 42.64334 | -9.50728 | 34907 ft | 422 kts | 247° |
| 2026-05-08 13:07 | 42.62340 | -9.58159 | 34899 ft | 422 kts | 247° |
| 2026-05-08 13:07 | 42.60313 | -9.65688 | 34892 ft | 421 kts | 247° |
| 2026-05-08 13:08 | 42.58305 | -9.73098 | 34886 ft | 421 kts | 247° |
| 2026-05-08 13:08 | 42.56286 | -9.80548 | 34890 ft | 421 kts | 247° |
| 2026-05-08 13:09 | 42.54264 | -9.87993 | 34903 ft | 420 kts | 247° |
| 2026-05-08 13:09 | 42.52238 | -9.95432 | 34894 ft | 420 kts | 246° |
| 2026-05-08 13:10 | 42.50211 | -10.02863 | 34884 ft | 420 kts | 246° |
| 2026-05-08 13:10 | 42.48173 | -10.10292 | 34885 ft | 420 kts | 246° |
| 2026-05-08 13:11 | 42.46133 | -10.17710 | 34883 ft | 420 kts | 246° |
| 2026-05-08 13:11 | 42.44088 | -10.25127 | 34888 ft | 420 kts | 246° |
| 2026-05-08 13:12 | 42.42037 | -10.32538 | 34877 ft | 421 kts | 246° |
| 2026-05-08 13:12 | 42.39978 | -10.39950 | 34874 ft | 421 kts | 246° |
| 2026-05-08 13:13 | 42.37918 | -10.47355 | 34860 ft | 421 kts | 246° |
| 2026-05-08 13:13 | 42.35852 | -10.54751 | 34861 ft | 421 kts | 246° |
| 2026-05-08 13:14 | 42.33789 | -10.62155 | 34872 ft | 421 kts | 246° |
| 2026-05-08 13:14 | 42.32068 | -10.68299 | 34867 ft | 421 kts | 246° |
| 2026-05-08 13:15 | 42.29984 | -10.75690 | 34846 ft | 421 kts | 246° |
| 2026-05-08 13:15 | 42.27637 | -10.82896 | 34857 ft | 417 kts | 236° |
| 2026-05-08 13:16 | 42.24382 | -10.89355 | 34851 ft | 416 kts | 233° |
| 2026-05-08 13:16 | 42.21091 | -10.95776 | 34855 ft | 416 kts | 233° |
| 2026-05-08 13:17 | 42.17803 | -11.02193 | 34840 ft | 416 kts | 233° |
| 2026-05-08 13:17 | 42.14503 | -11.08613 | 34841 ft | 417 kts | 233° |
| 2026-05-08 13:18 | 42.11197 | -11.15036 | 34837 ft | 417 kts | 233° |
| 2026-05-08 13:18 | 42.07889 | -11.21457 | 34836 ft | 417 kts | 233° |
| 2026-05-08 13:19 | 42.04580 | -11.27869 | 34834 ft | 417 kts | 233° |
| 2026-05-08 13:19 | 42.01261 | -11.34277 | 34838 ft | 418 kts | 233° |
| 2026-05-08 13:20 | 41.97935 | -11.40679 | 34830 ft | 418 kts | 232° |
| 2026-05-08 13:20 | 41.94604 | -11.47085 | 34823 ft | 418 kts | 232° |
| 2026-05-08 13:21 | 41.91267 | -11.53493 | 34822 ft | 418 kts | 232° |
| 2026-05-08 13:21 | 41.87930 | -11.59895 | 34822 ft | 419 kts | 232° |
| 2026-05-08 13:22 | 41.84591 | -11.66292 | 34817 ft | 419 kts | 232° |
| 2026-05-08 13:22 | 41.81259 | -11.72644 | 34817 ft | 419 kts | 232° |
| 2026-05-08 13:23 | 41.77906 | -11.79028 | 34806 ft | 419 kts | 232° |
| 2026-05-08 13:23 | 41.74546 | -11.85402 | 34814 ft | 419 kts | 232° |
| 2026-05-08 13:24 | 41.71184 | -11.91764 | 34820 ft | 418 kts | 232° |
| 2026-05-08 13:24 | 41.67828 | -11.98120 | 34821 ft | 418 kts | 232° |
| 2026-05-08 13:25 | 41.64467 | -12.04469 | 34824 ft | 418 kts | 232° |
| 2026-05-08 13:25 | 41.61107 | -12.10808 | 34821 ft | 418 kts | 232° |
| 2026-05-08 13:26 | 41.57744 | -12.17127 | 34818 ft | 417 kts | 232° |
| 2026-05-08 13:26 | 41.54382 | -12.23439 | 34812 ft | 417 kts | 232° |
| 2026-05-08 13:27 | 41.51018 | -12.29731 | 34810 ft | 416 kts | 233° |
| 2026-05-08 13:27 | 41.47667 | -12.35994 | 34808 ft | 414 kts | 233° |
| 2026-05-08 13:28 | 41.44320 | -12.42239 | 34819 ft | 413 kts | 233° |
| 2026-05-08 13:28 | 41.40972 | -12.48460 | 34802 ft | 413 kts | 232° |
| 2026-05-08 13:29 | 41.37623 | -12.54671 | 34799 ft | 413 kts | 232° |
| 2026-05-08 13:29 | 41.34281 | -12.60879 | 34791 ft | 412 kts | 233° |
| 2026-05-08 13:30 | 41.30939 | -12.67069 | 34773 ft | 412 kts | 232° |
| 2026-05-08 13:30 | 41.27586 | -12.73247 | 34767 ft | 412 kts | 232° |
| 2026-05-08 13:31 | 41.24239 | -12.79415 | 34780 ft | 411 kts | 232° |
| 2026-05-08 13:31 | 41.20886 | -12.85575 | 34762 ft | 412 kts | 232° |
| 2026-05-08 13:32 | 41.17529 | -12.91730 | 34751 ft | 412 kts | 232° |
| 2026-05-08 13:32 | 41.14166 | -12.97883 | 34748 ft | 412 kts | 232° |
| 2026-05-08 13:33 | 41.10801 | -13.04037 | 34742 ft | 412 kts | 232° |
| 2026-05-08 13:33 | 41.07434 | -13.10187 | 34738 ft | 412 kts | 232° |
| 2026-05-08 13:34 | 41.04060 | -13.16325 | 34742 ft | 412 kts | 232° |
| 2026-05-08 13:34 | 41.00671 | -13.22471 | 34727 ft | 413 kts | 232° |
| 2026-05-08 13:35 | 40.97284 | -13.28620 | 34728 ft | 414 kts | 231° |
| 2026-05-08 13:35 | 40.93888 | -13.34768 | 34727 ft | 414 kts | 231° |
| 2026-05-08 13:36 | 40.90489 | -13.40911 | 34713 ft | 414 kts | 231° |
| 2026-05-08 13:36 | 40.87088 | -13.47043 | 34713 ft | 414 kts | 231° |
| 2026-05-08 13:37 | 40.83674 | -13.53172 | 34715 ft | 414 kts | 231° |
| 2026-05-08 13:37 | 40.80263 | -13.59301 | 34716 ft | 414 kts | 231° |
| 2026-05-08 13:38 | 40.76843 | -13.65425 | 34701 ft | 414 kts | 231° |
| 2026-05-08 13:38 | 40.73444 | -13.71495 | 34704 ft | 414 kts | 231° |
| 2026-05-08 13:39 | 40.70022 | -13.77613 | 34704 ft | 415 kts | 231° |
| 2026-05-08 13:39 | 40.66592 | -13.83724 | 34684 ft | 415 kts | 231° |
| 2026-05-08 13:40 | 40.63156 | -13.89834 | 34682 ft | 415 kts | 231° |
| 2026-05-08 13:40 | 40.59711 | -13.95941 | 34671 ft | 416 kts | 231° |
| 2026-05-08 13:41 | 40.56260 | -14.02050 | 34670 ft | 416 kts | 231° |
| 2026-05-08 13:41 | 40.52796 | -14.08158 | 34663 ft | 417 kts | 231° |
| 2026-05-08 13:42 | 40.49330 | -14.14269 | 34662 ft | 417 kts | 231° |
| 2026-05-08 13:42 | 40.45866 | -14.20378 | 34659 ft | 417 kts | 231° |
| 2026-05-08 13:43 | 40.42393 | -14.26488 | 34645 ft | 418 kts | 231° |
| 2026-05-08 13:43 | 40.38902 | -14.32606 | 34636 ft | 419 kts | 231° |
| 2026-05-08 13:44 | 40.35396 | -14.38730 | 34629 ft | 420 kts | 231° |
| 2026-05-08 13:44 | 40.31883 | -14.44859 | 34629 ft | 421 kts | 231° |
| 2026-05-08 13:45 | 40.28367 | -14.50986 | 34621 ft | 421 kts | 231° |
| 2026-05-08 13:45 | 40.24853 | -14.57114 | 34622 ft | 421 kts | 231° |
| 2026-05-08 13:46 | 40.21325 | -14.63235 | 34620 ft | 422 kts | 231° |
| 2026-05-08 13:46 | 40.17786 | -14.69361 | 34622 ft | 423 kts | 231° |
| 2026-05-08 13:47 | 40.14238 | -14.75500 | 34611 ft | 423 kts | 231° |
| 2026-05-08 13:47 | 40.10686 | -14.81646 | 34616 ft | 424 kts | 231° |
| 2026-05-08 13:48 | 40.07117 | -14.87782 | 34613 ft | 424 kts | 231° |
| 2026-05-08 13:48 | 40.03542 | -14.93921 | 34628 ft | 425 kts | 231° |
| 2026-05-08 13:49 | 40.00315 | -15.00375 | 34615 ft | 428 kts | 244° |
| 2026-05-08 13:49 | 39.98624 | -15.07841 | 34612 ft | 431 kts | 255° |
| 2026-05-08 13:50 | 39.97292 | -15.15413 | 34616 ft | 432 kts | 255° |
| 2026-05-08 13:50 | 39.95935 | -15.23041 | 34614 ft | 432 kts | 255° |
| 2026-05-08 13:51 | 39.94572 | -15.30673 | 34622 ft | 432 kts | 255° |
| 2026-05-08 13:51 | 39.93202 | -15.38302 | 34617 ft | 432 kts | 255° |
| 2026-05-08 13:52 | 39.91834 | -15.45935 | 34619 ft | 433 kts | 255° |
| 2026-05-08 13:52 | 39.90460 | -15.53566 | 34618 ft | 433 kts | 255° |
| 2026-05-08 13:53 | 39.89064 | -15.61188 | 34621 ft | 433 kts | 254° |
| 2026-05-08 13:53 | 39.87671 | -15.68816 | 34631 ft | 433 kts | 255° |
| 2026-05-08 13:54 | 39.86287 | -15.76448 | 34624 ft | 433 kts | 255° |
| 2026-05-08 13:54 | 39.84889 | -15.84079 | 34619 ft | 433 kts | 255° |
| 2026-05-08 13:55 | 39.83479 | -15.91701 | 34618 ft | 433 kts | 255° |
| 2026-05-08 13:56 | 39.81363 | -16.03131 | 34623 ft | 433 kts | 255° |
| 2026-05-08 13:56 | 39.79947 | -16.10747 | 34621 ft | 433 kts | 255° |
| 2026-05-08 13:57 | 39.78524 | -16.18358 | 34619 ft | 433 kts | 255° |
| 2026-05-08 13:57 | 39.77089 | -16.25964 | 34620 ft | 433 kts | 255° |
| 2026-05-08 13:58 | 39.75656 | -16.33567 | 34621 ft | 433 kts | 255° |
| 2026-05-08 13:58 | 39.74227 | -16.41169 | 34612 ft | 433 kts | 255° |
| 2026-05-08 13:59 | 39.72796 | -16.48771 | 34614 ft | 433 kts | 256° |
| 2026-05-08 13:59 | 39.71352 | -16.56374 | 34618 ft | 433 kts | 255° |
| 2026-05-08 14:00 | 39.69889 | -16.63970 | 34620 ft | 434 kts | 255° |
| 2026-05-08 14:00 | 39.68671 | -16.70279 | 34620 ft | 433 kts | 255° |
| 2026-05-08 14:01 | 39.67207 | -16.77872 | 34615 ft | 434 kts | 256° |
| 2026-05-08 14:01 | 39.65738 | -16.85480 | 34614 ft | 435 kts | 256° |
| 2026-05-08 14:02 | 39.64262 | -16.93089 | 34614 ft | 435 kts | 256° |
| 2026-05-08 14:02 | 39.62776 | -17.00700 | 34615 ft | 435 kts | 256° |
| 2026-05-08 14:03 | 39.61298 | -17.08317 | 34618 ft | 435 kts | 257° |
| 2026-05-08 14:03 | 39.59798 | -17.15931 | 34613 ft | 436 kts | 256° |
| 2026-05-08 14:04 | 39.58295 | -17.23550 | 34615 ft | 437 kts | 257° |
| 2026-05-08 14:04 | 39.56793 | -17.31180 | 34616 ft | 437 kts | 257° |
| 2026-05-08 14:05 | 39.55280 | -17.38808 | 34623 ft | 437 kts | 256° |
| 2026-05-08 14:05 | 39.53759 | -17.46432 | 34618 ft | 437 kts | 257° |
| 2026-05-08 14:06 | 39.52238 | -17.54064 | 34624 ft | 438 kts | 257° |
| 2026-05-08 14:06 | 39.50709 | -17.61699 | 34628 ft | 438 kts | 257° |
| 2026-05-08 14:07 | 39.49172 | -17.69330 | 34629 ft | 438 kts | 256° |
| 2026-05-08 14:07 | 39.47622 | -17.76952 | 34621 ft | 438 kts | 257° |
| 2026-05-08 14:08 | 39.46079 | -17.84578 | 34631 ft | 438 kts | 257° |
| 2026-05-08 14:08 | 39.44539 | -17.92198 | 34642 ft | 438 kts | 257° |
| 2026-05-08 14:09 | 39.42981 | -17.99804 | 34640 ft | 437 kts | 257° |
| 2026-05-08 14:09 | 39.41412 | -18.07407 | 34641 ft | 437 kts | 257° |
| 2026-05-08 14:10 | 39.39852 | -18.15003 | 34635 ft | 437 kts | 257° |
| 2026-05-08 14:10 | 39.38283 | -18.22594 | 34646 ft | 437 kts | 257° |
| 2026-05-08 14:11 | 39.36704 | -18.30181 | 34653 ft | 437 kts | 257° |
| 2026-05-08 14:11 | 39.35134 | -18.37710 | 34656 ft | 437 kts | 257° |
| 2026-05-08 14:12 | 39.33551 | -18.45287 | 34645 ft | 437 kts | 258° |
| 2026-05-08 14:12 | 39.31954 | -18.52913 | 34664 ft | 436 kts | 258° |
| 2026-05-08 14:13 | 39.30377 | -18.60418 | 34664 ft | 436 kts | 258° |
| 2026-05-08 14:13 | 39.28780 | -18.67966 | 34667 ft | 436 kts | 258° |
| 2026-05-08 14:14 | 39.27185 | -18.75503 | 34672 ft | 435 kts | 258° |
| 2026-05-08 14:14 | 39.25590 | -18.83035 | 34678 ft | 435 kts | 258° |
| 2026-05-08 14:15 | 39.23992 | -18.90560 | 34677 ft | 435 kts | 258° |
| 2026-05-08 14:15 | 39.22385 | -18.98068 | 34672 ft | 434 kts | 258° |
| 2026-05-08 14:16 | 39.20768 | -19.05572 | 34685 ft | 434 kts | 258° |
| 2026-05-08 14:16 | 39.19157 | -19.13070 | 34670 ft | 434 kts | 258° |
| 2026-05-08 14:17 | 39.17536 | -19.20551 | 34678 ft | 433 kts | 258° |
| 2026-05-08 14:17 | 39.15918 | -19.28021 | 34698 ft | 433 kts | 258° |
| 2026-05-08 14:18 | 39.14294 | -19.35485 | 34694 ft | 432 kts | 258° |
| 2026-05-08 14:18 | 39.12663 | -19.42936 | 34703 ft | 432 kts | 258° |
| 2026-05-08 14:19 | 39.11024 | -19.50372 | 34691 ft | 431 kts | 259° |
| 2026-05-08 14:19 | 39.09389 | -19.57804 | 34703 ft | 431 kts | 259° |
| 2026-05-08 14:20 | 39.07759 | -19.65223 | 34707 ft | 431 kts | 259° |
| 2026-05-08 14:20 | 39.06118 | -19.72634 | 34717 ft | 430 kts | 259° |
| 2026-05-08 14:21 | 39.04481 | -19.79984 | 34706 ft | 430 kts | 259° |
| 2026-05-08 14:21 | 39.02834 | -19.87367 | 34729 ft | 429 kts | 259° |
| 2026-05-08 14:22 | 39.01190 | -19.94726 | 34737 ft | 428 kts | 259° |
| 2026-05-08 14:22 | 38.99533 | -20.02064 | 34739 ft | 427 kts | 259° |
| 2026-05-08 14:23 | 38.97772 | -20.09360 | 34748 ft | 428 kts | 258° |
| 2026-05-08 14:23 | 38.95956 | -20.16632 | 34739 ft | 427 kts | 258° |
| 2026-05-08 14:24 | 38.94158 | -20.23893 | 34756 ft | 426 kts | 258° |
| 2026-05-08 14:24 | 38.92380 | -20.31135 | 34758 ft | 425 kts | 258° |
| 2026-05-08 14:25 | 38.90599 | -20.38367 | 34767 ft | 425 kts | 258° |
| 2026-05-08 14:25 | 38.88814 | -20.45589 | 34766 ft | 424 kts | 258° |
| 2026-05-08 14:26 | 38.87027 | -20.52799 | 34762 ft | 423 kts | 259° |
| 2026-05-08 14:26 | 38.85234 | -20.59982 | 34770 ft | 422 kts | 258° |
| 2026-05-08 14:27 | 38.83440 | -20.67146 | 34783 ft | 422 kts | 259° |
| 2026-05-08 14:27 | 38.81655 | -20.74300 | 34788 ft | 421 kts | 259° |
| 2026-05-08 14:28 | 38.79857 | -20.81444 | 34760 ft | 421 kts | 258° |
| 2026-05-08 14:28 | 38.78072 | -20.88523 | 34784 ft | 420 kts | 259° |
| 2026-05-08 14:29 | 38.76277 | -20.95634 | 34783 ft | 419 kts | 258° |
| 2026-05-08 14:29 | 38.74469 | -21.02785 | 34797 ft | 419 kts | 258° |
| 2026-05-08 14:30 | 38.72682 | -21.09833 | 34792 ft | 419 kts | 258° |
| 2026-05-08 14:30 | 38.70877 | -21.16917 | 34780 ft | 418 kts | 258° |
| 2026-05-08 14:31 | 38.69051 | -21.24039 | 34787 ft | 418 kts | 258° |
| 2026-05-08 14:31 | 38.67238 | -21.31108 | 34800 ft | 418 kts | 258° |
| 2026-05-08 14:32 | 38.64509 | -21.41699 | 34809 ft | 418 kts | 258° |
| 2026-05-08 14:32 | 38.62695 | -21.48706 | 34781 ft | 418 kts | 258° |
| 2026-05-08 14:33 | 38.60874 | -21.55754 | 34798 ft | 417 kts | 258° |
| 2026-05-08 14:33 | 38.59034 | -21.62845 | 34804 ft | 417 kts | 258° |
| 2026-05-08 14:34 | 38.57200 | -21.69880 | 34817 ft | 417 kts | 258° |
| 2026-05-08 14:34 | 38.55367 | -21.76912 | 34821 ft | 417 kts | 258° |
| 2026-05-08 14:35 | 38.53520 | -21.83943 | 34803 ft | 417 kts | 259° |
| 2026-05-08 14:35 | 38.51674 | -21.90969 | 34820 ft | 417 kts | 259° |
| 2026-05-08 14:36 | 38.49827 | -21.97985 | 34827 ft | 417 kts | 259° |
| 2026-05-08 14:36 | 38.47979 | -22.04994 | 34831 ft | 416 kts | 258° |
| 2026-05-08 14:37 | 38.46124 | -22.11993 | 34842 ft | 416 kts | 258° |
| 2026-05-08 14:37 | 38.44267 | -22.18989 | 34842 ft | 416 kts | 258° |
| 2026-05-08 14:38 | 38.42408 | -22.25972 | 34845 ft | 416 kts | 258° |
| 2026-05-08 14:38 | 38.40540 | -22.32949 | 34851 ft | 416 kts | 258° |
| 2026-05-08 14:39 | 38.38687 | -22.39868 | 34850 ft | 415 kts | 258° |
| 2026-05-08 14:39 | 38.36830 | -22.46832 | 34824 ft | 415 kts | 259° |
| 2026-05-08 14:40 | 38.34964 | -22.53780 | 34833 ft | 414 kts | 258° |
| 2026-05-08 14:40 | 38.33092 | -22.60725 | 34845 ft | 414 kts | 258° |
| 2026-05-08 14:41 | 38.31208 | -22.67663 | 34849 ft | 415 kts | 258° |
| 2026-05-08 14:41 | 38.29322 | -22.74598 | 34866 ft | 415 kts | 258° |
| 2026-05-08 14:42 | 38.27429 | -22.81527 | 34849 ft | 414 kts | 259° |
| 2026-05-08 14:42 | 38.25547 | -22.88452 | 34866 ft | 414 kts | 259° |
| 2026-05-08 14:43 | 38.23654 | -22.95361 | 34873 ft | 413 kts | 259° |
| 2026-05-08 14:43 | 38.21761 | -23.02267 | 34884 ft | 413 kts | 259° |
| 2026-05-08 14:44 | 38.19868 | -23.09169 | 34888 ft | 413 kts | 258° |
| 2026-05-08 14:44 | 38.17973 | -23.16062 | 34871 ft | 413 kts | 259° |
| 2026-05-08 14:45 | 38.16077 | -23.22943 | 34883 ft | 412 kts | 259° |
| 2026-05-08 14:45 | 38.14165 | -23.29815 | 34894 ft | 412 kts | 258° |
| 2026-05-08 14:46 | 38.12249 | -23.36677 | 34903 ft | 412 kts | 259° |
| 2026-05-08 14:46 | 38.10651 | -23.42422 | 34903 ft | 412 kts | 258° |
| 2026-05-08 14:47 | 38.09693 | -23.45844 | 34660 ft | 410 kts | 259° |
| 2026-05-08 14:47 | 38.08741 | -23.49235 | 34190 ft | 406 kts | 259° |
| 2026-05-08 14:47 | 38.07795 | -23.52596 | 33676 ft | 403 kts | 259° |
| 2026-05-08 14:47 | 38.06857 | -23.55925 | 33177 ft | 398 kts | 259° |
| 2026-05-08 14:48 | 38.05929 | -23.59214 | 32707 ft | 394 kts | 259° |
| 2026-05-08 14:48 | 38.05014 | -23.62468 | 32243 ft | 390 kts | 259° |
| 2026-05-08 14:48 | 38.04109 | -23.65689 | 31777 ft | 386 kts | 259° |
| 2026-05-08 14:48 | 38.03212 | -23.68880 | 31320 ft | 382 kts | 259° |
| 2026-05-08 14:49 | 38.02324 | -23.72041 | 30887 ft | 379 kts | 259° |
| 2026-05-08 14:49 | 38.01442 | -23.75173 | 30411 ft | 376 kts | 259° |
| 2026-05-08 14:49 | 38.00569 | -23.78271 | 30019 ft | 371 kts | 260° |
| 2026-05-08 14:49 | 37.99700 | -23.81344 | 29550 ft | 368 kts | 260° |
| 2026-05-08 14:50 | 37.98840 | -23.84372 | 29139 ft | 363 kts | 260° |
| 2026-05-08 14:50 | 37.97989 | -23.87366 | 28742 ft | 359 kts | 260° |
| 2026-05-08 14:50 | 37.97151 | -23.90319 | 28345 ft | 354 kts | 260° |
| 2026-05-08 14:50 | 37.96323 | -23.93240 | 27957 ft | 350 kts | 260° |
| 2026-05-08 14:51 | 37.95517 | -23.96084 | 27578 ft | 345 kts | 260° |
| 2026-05-08 14:51 | 37.94707 | -23.98929 | 27186 ft | 342 kts | 260° |
| 2026-05-08 14:51 | 37.93902 | -24.01740 | 26819 ft | 338 kts | 260° |
| 2026-05-08 14:51 | 37.93107 | -24.04520 | 26440 ft | 334 kts | 259° |
| 2026-05-08 14:52 | 37.92320 | -24.07269 | 26018 ft | 331 kts | 260° |
| 2026-05-08 14:52 | 37.90770 | -24.12671 | 25268 ft | 323 kts | 260° |
| 2026-05-08 14:52 | 37.90008 | -24.15340 | 24874 ft | 322 kts | 260° |
| 2026-05-08 14:53 | 37.89249 | -24.17994 | 24479 ft | 320 kts | 260° |
| 2026-05-08 14:53 | 37.88492 | -24.20638 | 24077 ft | 319 kts | 259° |
| 2026-05-08 14:53 | 37.87735 | -24.23272 | 23672 ft | 318 kts | 259° |
| 2026-05-08 14:53 | 37.86979 | -24.25898 | 23227 ft | 317 kts | 259° |
| 2026-05-08 14:54 | 37.86228 | -24.28510 | 22823 ft | 315 kts | 259° |
| 2026-05-08 14:54 | 37.85482 | -24.31104 | 22426 ft | 313 kts | 259° |
| 2026-05-08 14:54 | 37.84741 | -24.33677 | 22034 ft | 311 kts | 259° |
| 2026-05-08 14:54 | 37.83999 | -24.36240 | 21653 ft | 309 kts | 259° |
| 2026-05-08 14:55 | 37.83262 | -24.38787 | 21244 ft | 308 kts | 259° |
| 2026-05-08 14:55 | 37.82529 | -24.41318 | 20891 ft | 305 kts | 259° |
| 2026-05-08 14:55 | 37.81802 | -24.43829 | 20510 ft | 304 kts | 259° |
| 2026-05-08 14:55 | 37.81077 | -24.46329 | 20147 ft | 302 kts | 259° |
| 2026-05-08 14:56 | 37.80355 | -24.48819 | 19778 ft | 301 kts | 259° |
| 2026-05-08 14:56 | 37.79634 | -24.51299 | 19427 ft | 300 kts | 259° |
| 2026-05-08 14:56 | 37.78912 | -24.53773 | 19054 ft | 300 kts | 259° |
| 2026-05-08 14:56 | 37.78193 | -24.56244 | 18688 ft | 299 kts | 259° |
| 2026-05-08 14:57 | 37.77476 | -24.58714 | 18321 ft | 299 kts | 259° |
| 2026-05-08 14:57 | 37.76758 | -24.61183 | 17921 ft | 299 kts | 258° |
| 2026-05-08 14:57 | 37.76040 | -24.63640 | 17553 ft | 297 kts | 258° |
| 2026-05-08 14:57 | 37.75334 | -24.66053 | 17207 ft | 296 kts | 258° |
| 2026-05-08 14:58 | 37.74625 | -24.68486 | 16857 ft | 294 kts | 258° |
| 2026-05-08 14:58 | 37.73919 | -24.70908 | 16479 ft | 293 kts | 258° |
| 2026-05-08 14:58 | 37.73216 | -24.73318 | 16158 ft | 292 kts | 258° |
| 2026-05-08 14:58 | 37.72512 | -24.75718 | 15816 ft | 291 kts | 258° |
| 2026-05-08 14:59 | 37.71810 | -24.78112 | 15482 ft | 290 kts | 258° |
| 2026-05-08 14:59 | 37.70405 | -24.82884 | 14801 ft | 289 kts | 257° |
| 2026-05-08 14:59 | 37.69704 | -24.85265 | 14463 ft | 289 kts | 257° |
| 2026-05-08 15:00 | 37.69004 | -24.87646 | 14121 ft | 289 kts | 257° |
| 2026-05-08 15:00 | 37.68304 | -24.90027 | 13780 ft | 289 kts | 257° |
| 2026-05-08 15:00 | 37.67604 | -24.92408 | 13409 ft | 289 kts | 257° |
| 2026-05-08 15:00 | 37.66907 | -24.94777 | 13060 ft | 287 kts | 257° |
| 2026-05-08 15:01 | 37.66211 | -24.97133 | 12710 ft | 286 kts | 257° |
| 2026-05-08 15:01 | 37.65516 | -24.99480 | 12359 ft | 285 kts | 257° |
| 2026-05-08 15:01 | 37.64823 | -25.01816 | 12010 ft | 284 kts | 257° |
| 2026-05-08 15:01 | 37.64131 | -25.04143 | 11657 ft | 282 kts | 256° |
| 2026-05-08 15:02 | 37.63444 | -25.06455 | 11305 ft | 281 kts | 256° |
| 2026-05-08 15:02 | 37.62762 | -25.08757 | 10954 ft | 280 kts | 256° |
| 2026-05-08 15:02 | 37.62079 | -25.11056 | 10600 ft | 279 kts | 256° |
| 2026-05-08 15:02 | 37.61395 | -25.13346 | 10242 ft | 279 kts | 256° |
| 2026-05-08 15:03 | 37.60714 | -25.15631 | 9875 ft | 278 kts | 256° |
| 2026-05-08 15:03 | 37.60036 | -25.17914 | 9481 ft | 277 kts | 256° |
| 2026-05-08 15:03 | 37.59441 | -25.20203 | 9083 ft | 271 kts | 266° |
| 2026-05-08 15:03 | 37.59382 | -25.22516 | 8716 ft | 259 kts | 284° |
| 2026-05-08 15:04 | 37.59857 | -25.24628 | 8351 ft | 242 kts | 297° |
| 2026-05-08 15:04 | 37.60479 | -25.26546 | 8006 ft | 230 kts | 297° |
| 2026-05-08 15:04 | 37.61062 | -25.28378 | 7683 ft | 222 kts | 297° |
| 2026-05-08 15:04 | 37.61632 | -25.30185 | 7330 ft | 222 kts | 297° |
| 2026-05-08 15:05 | 37.62206 | -25.31986 | 6969 ft | 222 kts | 297° |
| 2026-05-08 15:05 | 37.62774 | -25.33765 | 6613 ft | 222 kts | 297° |
| 2026-05-08 15:05 | 37.63351 | -25.35570 | 6236 ft | 222 kts | 297° |
| 2026-05-08 15:05 | 37.63927 | -25.37379 | 5803 ft | 223 kts | 299° |
| 2026-05-08 15:06 | 37.64507 | -25.39202 | 5225 ft | 222 kts | 298° |
| 2026-05-08 15:06 | 37.65068 | -25.40969 | 4870 ft | 212 kts | 298° |
| 2026-05-08 15:06 | 37.65604 | -25.42656 | 4578 ft | 202 kts | 298° |
| 2026-05-08 15:06 | 37.66117 | -25.44266 | 4298 ft | 193 kts | 299° |
| 2026-05-08 15:07 | 37.66607 | -25.45803 | 4037 ft | 185 kts | 299° |
| 2026-05-08 15:07 | 37.67080 | -25.47289 | 3790 ft | 181 kts | 299° |
| 2026-05-08 15:07 | 37.67544 | -25.48754 | 3559 ft | 179 kts | 300° |
| 2026-05-08 15:07 | 37.68007 | -25.50207 | 3307 ft | 178 kts | 300° |
| 2026-05-08 15:08 | 37.68467 | -25.51652 | 3074 ft | 177 kts | 299° |
| 2026-05-08 15:08 | 37.68777 | -25.52626 | 2900 ft | 177 kts | 300° |
| 2026-05-08 15:08 | 37.69365 | -25.54491 | 2614 ft | 169 kts | 300° |
| 2026-05-08 15:08 | 37.69794 | -25.55845 | 2367 ft | 164 kts | 299° |
| 2026-05-08 15:09 | 37.70212 | -25.57163 | 2157 ft | 159 kts | 302° |
| 2026-05-08 15:09 | 37.70611 | -25.58427 | 1922 ft | 150 kts | 300° |
| 2026-05-08 15:09 | 37.70983 | -25.59606 | 1735 ft | 139 kts | 303° |
| 2026-05-08 15:09 | 37.71349 | -25.60755 | 1544 ft | 142 kts | 299° |
| 2026-05-08 15:10 | 37.71709 | -25.61895 | 1347 ft | 140 kts | 301° |
| 2026-05-08 15:10 | 37.72068 | -25.63027 | 1166 ft | 137 kts | 303° |
| 2026-05-08 15:10 | 37.72416 | -25.64128 | 984 ft | 134 kts | 306° |
| 2026-05-08 15:10 | 37.72765 | -25.65228 | 801 ft | 137 kts | 302° |
| 2026-05-08 15:11 | 37.73120 | -25.66348 | 630 ft | 136 kts | 301° |
| 2026-05-08 15:11 | 37.73467 | -25.67451 | 450 ft | 134 kts | 302° |
| 2026-05-08 15:11 | 37.73810 | -25.68547 | 258 ft | 134 kts | 301° |
| 2026-05-08 15:11 | 37.74140 | -25.69562 | 223 ft | 105 kts | 291° |
| 2026-05-08 15:12 | 37.74293 | -25.70065 | 240 ft | 24 kts | 291° |
| 2026-05-08 15:12 | 37.74353 | -25.70245 | 247 ft | 23 kts | 291° |
| 2026-05-08 15:12 | 37.74416 | -25.70447 | 258 ft | 26 kts | 291° |
| 2026-05-08 15:12 | 37.74477 | -25.70650 | 263 ft | 22 kts | 291° |
| 2026-05-08 15:13 | 37.74526 | -25.70801 | 269 ft | 14 kts | 292° |
| 2026-05-08 15:13 | 37.74564 | -25.70917 | 270 ft | 14 kts | 294° |
| 2026-05-08 15:13 | 37.74635 | -25.70994 | 272 ft | 13 kts | 328° |
| 2026-05-08 15:13 | 37.74715 | -25.71023 | 275 ft | 12 kts | 2° |
| 2026-05-08 15:14 | 37.74780 | -25.71039 | 272 ft | 10 kts | 313° |
| 2026-05-08 15:14 | 37.74806 | -25.71120 | 272 ft | 7 kts | 292° |
| 2026-05-08 15:14 | 37.74835 | -25.71138 | 272 ft | 5 kts | 14° |
| 2026-05-08 15:14 | 37.74865 | -25.71122 | 272 ft | 4 kts | 22° |
| 2026-05-08 15:15 | 37.74882 | -25.71113 | 271 ft | 0 kts | 23° |